Overview Statistics Trail Chart Weather Telemetry Raw packets
 

This is the latest recevied weather packets stored in our database for station/object HP3ICC-22. If no packets are shown the sender has not sent any weather packets the latest 10 day(s).

<< 25 26 27 28 29 30 31 >>
Time Temp. Humidity Pressure Rain* Wind** Luminosity Snow
1777331936 11.67° C 71% 1012 hPa 0 mm - - -
1777331876 11.67° C 71% 1012 hPa 0 mm - - -
1777330736 12.78° C 69% 1012 hPa 0 mm - - -
1777330675 12.78° C 69% 1012 hPa 0 mm - - -
1777329535 13.89° C 66% 1012 hPa 0 mm - - -
1777329475 13.89° C 66% 1012 hPa 0 mm - - -
1777328335 12.78° C 71% 1011 hPa 0 mm - - -
1777328274 12.78° C 71% 1011 hPa 0 mm - - -
1777327134 13.33° C 71% 1012 hPa 0 mm - - -
1777327074 13.33° C 71% 1012 hPa 0 mm - - -
1777325933 13.33° C 67% 1012 hPa 0 mm - - -
1777325873 13.33° C 67% 1012 hPa 0 mm - - -
1777324733 14.44° C 66% 1012 hPa 0 mm - - -
1777324673 14.44° C 66% 1012 hPa 0 mm - - -
1777323532 12.78° C 74% 1012 hPa 0 mm - - -
1777323472 12.78° C 74% 1012 hPa 0 mm - - -
1777322332 13.33° C 74% 1012 hPa 0 mm - - -
1777322271 13.33° C 74% 1012 hPa 0 mm - - -
1777321131 13.89° C 74% 1012 hPa 0 mm - - -
1777321071 13.89° C 74% 1012 hPa 0 mm - - -
1777319931 14.44° C 66% 1012 hPa 0 mm - - -
1777319870 14.44° C 66% 1012 hPa 0 mm - - -
1777318730 13.89° C 69% 1012 hPa 0 mm - - -
1777318670 13.89° C 69% 1012 hPa 0 mm - - -
1777317530 15° C 65% 1013 hPa 0 mm - - -

* Rain latest hour (hover to see other rain measurements)
** Current wind speed in m/s (hover to see current wind gust speed)